Terminal Aerodrome Forecast
Issued by NWS

Home | Current Version | Previous Version | Graphics & Text | Print | Product List | Glossary On
Versions: 1 2 3 4 5 6 7 8 9 10 11 12 13 14 15
000
FTUS41 KCLE 300500
TAFFDY
TAF
KFDY 300529Z 3006/3106 28005KT P6SM OVC050
     FM301000 26004KT P6SM FEW050 SCT250
     FM301400 27005KT P6SM SCT120 BKN200
     FM310000 VRB03KT P6SM OVC100=

USA.gov is the U.S. government's official web portal to all federal, state and local government web resources and services.